Meteo Giornale » Osservazioni meteo Stati Uniti (USA) » Denver Centennial

ore: 13:53 - Osservazioni Meteo Denver Centennial
Lat. 39° 33' N Lon. 104° 50' W Alt. 1793 metri s.l.m.

poco_nuvoloso

27 °C

Poco Nuvoloso

Temp. 24 Ore

16 °C

29 °C

Est

13 Km/h

Dew point 7 °C

Umidità 28 %

Visibilità  10 Km

Il sole sorge alle ore 06:27

Il sole tramonta alle ore 19:30

Data e Ora Cielo e Fenomeni T °C DP °C Um. % Pres. hPa Vis. km Vento km/h
Oggi h: 13:53 poco_nuvoloso Poco Nuvoloso 27 7 28 1020 10 E 13
Oggi h: 12:53 poco_nuvoloso Poco Nuvoloso 26 7 29 1021 10 N/NE 7.4
Oggi h: 11:53 poco_nuvoloso Poco Nuvoloso 24 8 35 1021 10 N 11.1
Oggi h: 10:53 poco_nuvoloso Poco Nuvoloso 22 11 49 1022 10 N 11.1
Oggi h: 09:53 molto_nuvoloso Molto Nuvoloso 21 11 52 1022 10 N 11.1
Oggi h: 08:53 molto_nuvoloso Molto Nuvoloso 19 10 55 1022 10 N 11.1
Oggi h: 07:53 molto_nuvoloso Molto Nuvoloso 18 11 63 1021 10 S 14.8
Oggi h: 07:34 molto_nuvoloso Molto Nuvoloso 18 11 63 1021 10 O/SO 29.6
Oggi h: 06:53 molto_nuvoloso Molto Nuvoloso 17 11 67 1021 10 S 14.8
Oggi h: 05:53 molto_nuvoloso Molto Nuvoloso 16 12 77 1021 10 O/SO 25.9
Oggi h: 04:53 molto_nuvoloso Molto Nuvoloso 16 12 77 1021 10 S 11.1
Oggi h: 03:53 molto_nuvoloso Molto Nuvoloso 16 12 77 1021 10 S 9.3
Oggi h: 02:53 molto_nuvoloso Molto Nuvoloso 16 12 77 1022 10 N 0
Oggi h: 01:53 molto_nuvoloso Molto Nuvoloso 16 13 82 1022 10 S/SE 9.3
Oggi h: 00:53 molto_nuvoloso Molto Nuvoloso 17 13 77 1023 10 SE 13
Ieri h: 23:53 molto_nuvoloso Molto Nuvoloso 16 13 82 1023 10 S/SE 11.1
Ieri h: 22:53 molto_nuvoloso Molto Nuvoloso 16 14 87 1022 10 O 33.3
Ieri h: 21:53 molto_nuvoloso Molto Nuvoloso 17 14 82 1022 10 S 13
Ieri h: 20:53 molto_nuvoloso Molto Nuvoloso 17 14 82 1023 10 O/NO 13
Ieri h: 20:13 coperto_pioggia Pioggia 19 13 68 1022 14 O 50
Ieri h: 19:53 coperto Coperto 24 8 35 1021 10 S/SE 7.4
Ieri h: 18:53 molto_nuvoloso Molto Nuvoloso 26 8 31 1020 10 E 20.3
Ieri h: 17:53 molto_nuvoloso Molto Nuvoloso 28 7 26 1020 10 E/SE 20.3
Ieri h: 16:53 molto_nuvoloso Molto Nuvoloso 28 7 26 1020 10 SE 18.5
Ieri h: 15:53 molto_nuvoloso Molto Nuvoloso 29 8 26 1021 10 E 24
Ieri h: 14:53 molto_nuvoloso Molto Nuvoloso 27 7 28 1021 10 E 16.7